Time;durP1;ratioP1;P1;durP2;ratioP2;P2;SDS_P1;SDS_P2;PMS_P1;PMS_P2;Temp;Humidity;BMP_temperature;BMP_pressure;BME280_temperature;BME280_humidity;BME280_pressure;Samples;Min_cycle;Max_cycle;Signal;HPM_P1;HPM_P2
2022/08/15 00:02:17;;;;;;;14.80;9.30;;;;;;;19.90;67.13;95346.53;5015931;28;20049;-78
2022/08/15 00:04:44;;;;;;;17.30;9.23;;;;;;;19.78;66.56;95345.81;5015498;28;20081;-78
2022/08/15 00:07:11;;;;;;;12.73;8.18;;;;;;;19.77;66.58;95340.66;5012050;28;20046;-79
2022/08/15 00:09:38;;;;;;;12.75;8.25;;;;;;;19.78;66.60;95345.00;5013141;28;20050;-78
2022/08/15 00:12:05;;;;;;;15.55;8.40;;;;;;;19.84;66.92;95346.16;5010254;28;20579;-78
2022/08/15 00:14:37;;;;;;;14.10;7.95;;;;;;;19.92;67.17;95333.09;5012504;28;20508;-77
2022/08/15 00:17:09;;;;;;;14.25;7.95;;;;;;;19.97;67.10;95327.94;5011600;28;20054;-78
2022/08/15 00:19:38;;;;;;;15.27;8.70;;;;;;;19.98;66.85;95332.25;5012877;28;20042;-78
2022/08/15 00:22:07;;;;;;;14.23;8.82;;;;;;;20.01;66.58;95337.00;5009582;28;20060;-78
2022/08/15 00:24:37;;;;;;;13.35;8.63;;;;;;;20.01;66.39;95337.00;5013051;28;20558;-77
2022/08/15 00:27:07;;;;;;;14.57;8.70;;;;;;;20.03;66.39;95331.84;5012475;28;20054;-77
2022/08/15 00:29:34;;;;;;;16.30;9.43;;;;;;;20.07;66.56;95332.59;5012736;28;20548;-80
2022/08/15 00:32:00;;;;;;;11.80;7.82;;;;;;;20.15;66.28;95327.03;5012947;28;20057;-80
2022/08/15 00:34:28;;;;;;;11.98;7.68;;;;;;;20.16;66.58;95326.63;5012721;28;20057;-78
2022/08/15 00:36:55;;;;;;;12.93;7.85;;;;;;;20.15;66.37;95321.50;5012943;28;20049;-78
2022/08/15 00:39:23;;;;;;;13.23;8.30;;;;;;;20.18;66.52;95332.53;5011816;28;20049;-78
2022/08/15 00:41:53;;;;;;;11.32;7.68;;;;;;;20.20;66.63;95335.69;5012855;28;20060;-77
2022/08/15 00:44:23;;;;;;;12.00;8.13;;;;;;;20.27;66.50;95340.38;5012386;28;20119;-77
2022/08/15 00:46:52;;;;;;;11.88;7.90;;;;;;;20.29;66.57;95343.53;5012924;28;20046;-77
2022/08/15 00:49:19;;;;;;;12.77;7.85;;;;;;;20.28;66.48;95341.94;5015404;28;20054;-78
2022/08/15 00:51:49;;;;;;;14.50;8.65;;;;;;;20.26;66.39;95349.88;5019277;28;20640;-77
2022/08/15 00:54:21;;;;;;;12.52;8.80;;;;;;;20.29;66.56;95343.53;5017798;28;20061;-78
2022/08/15 00:56:51;;;;;;;14.02;9.15;;;;;;;20.22;66.54;95344.38;5019827;28;20045;-78
2022/08/15 00:59:23;;;;;;;16.90;9.63;;;;;;;20.15;66.41;95354.66;5019159;28;20062;-77
2022/08/15 01:01:51;;;;;;;11.18;8.27;;;;;;;20.07;66.43;95338.13;5020336;28;20049;-77
2022/08/15 01:04:20;;;;;;;11.90;8.25;;;;;;;20.10;66.69;95342.09;5015024;28;20676;-78
2022/08/15 01:06:47;;;;;;;15.40;8.50;;;;;;;20.19;66.88;95334.09;5014841;28;20509;-78
2022/08/15 01:09:16;;;;;;;16.40;8.95;;;;;;;20.00;67.21;95329.91;5015172;28;20516;-78
2022/08/15 01:11:46;;;;;;;17.38;8.15;;;;;;;19.99;67.45;95331.09;5015238;28;20610;-78
2022/08/15 01:14:13;;;;;;;13.30;8.30;;;;;;;19.97;67.72;95332.66;5013824;28;20118;-79
2022/08/15 01:16:40;;;;;;;18.70;9.00;;;;;;;19.90;68.09;95338.25;5012943;28;20049;-77
2022/08/15 01:19:19;;;;;;;16.60;9.30;;;;;;;19.88;68.10;95335.88;5014062;28;20057;-78
2022/08/15 01:22:17;;;;;;;15.48;8.88;;;;;;;19.87;68.25;95339.81;5014810;28;20053;-77
2022/08/15 01:25:03;;;;;;;12.90;8.93;;;;;;;19.83;68.24;95344.56;4999958;28;20564;-77
2022/08/15 01:27:35;;;;;;;16.52;9.40;;;;;;;19.86;68.00;95338.25;5014245;28;20045;-77
2022/08/15 01:30:05;;;;;;;12.50;8.13;;;;;;;19.83;67.77;95339.06;5014698;28;20050;-77
2022/08/15 01:32:32;;;;;;;15.18;9.18;;;;;;;19.88;67.74;95346.13;5014800;28;20053;-78
2022/08/15 01:35:00;;;;;;;12.13;8.32;;;;;;;19.95;67.73;95346.91;5014179;28;20472;-77
2022/08/15 01:37:26;;;;;;;13.63;7.82;;;;;;;20.00;67.64;95343.72;5013887;28;20791;-78
2022/08/15 01:40:01;;;;;;;13.38;8.40;;;;;;;19.89;67.66;95342.19;5014974;28;20532;-78
2022/08/15 01:42:35;;;;;;;13.10;8.18;;;;;;;19.90;67.52;95338.25;5013892;28;20052;-78
2022/08/15 01:45:08;;;;;;;11.15;7.50;;;;;;;19.90;67.40;95335.47;5019800;28;20064;-77
2022/08/15 01:47:38;;;;;;;;;;;;;;;19.89;67.03;95334.69;5014457;28;20045;-78
2022/08/15 01:50:08;;;;;;;12.57;8.25;;;;;;;19.91;66.98;95339.81;5013429;28;20435;-79
2022/08/15 01:52:40;;;;;;;13.43;8.60;;;;;;;19.95;66.78;95333.09;5013676;28;20394;-79
2022/08/15 01:55:11;;;;;;;14.30;8.80;;;;;;;20.02;66.91;95335.78;5013269;28;20049;-78
2022/08/15 01:57:38;;;;;;;12.85;8.05;;;;;;;20.05;66.90;95320.41;5012964;28;20419;-79
2022/08/15 02:00:07;;;;;;;13.48;8.45;;;;;;;20.06;66.85;95319.97;5012543;28;20054;-79
2022/08/15 02:02:34;;;;;;;13.70;8.32;;;;;;;20.07;67.18;95327.09;5012749;28;20050;-78
2022/08/15 02:05:01;;;;;;;14.68;9.18;;;;;;;19.93;67.00;95324.38;5012931;28;20065;-78
2022/08/15 02:07:28;;;;;;;14.95;9.35;;;;;;;19.84;67.19;95332.34;5012944;28;20037;-77
2022/08/15 02:09:56;;;;;;;13.32;8.95;;;;;;;19.83;67.25;95322.47;5012612;28;20510;-78
2022/08/15 02:12:29;;;;;;;12.23;8.52;;;;;;;19.80;67.39;95329.59;5012086;28;20046;-77
2022/08/15 02:14:56;;;;;;;;;;;;;;;19.79;67.51;95332.78;5013328;28;20085;-79
2022/08/15 02:17:22;;;;;;;12.82;8.18;;;;;;;19.79;67.59;95328.03;5011671;28;19936;-78
2022/08/15 02:19:50;;;;;;;12.88;8.32;;;;;;;19.83;67.75;95333.53;5012239;28;20046;-81
2022/08/15 02:22:20;;;;;;;14.32;8.48;;;;;;;19.86;67.15;95327.22;5001363;28;20042;-78
2022/08/15 02:24:47;;;;;;;15.40;8.88;;;;;;;19.85;67.06;95331.16;4991842;28;20050;-79
2022/08/15 02:27:14;;;;;;;15.85;8.98;;;;;;;19.86;67.13;95331.94;4990550;28;20591;-78
2022/08/15 02:29:44;;;;;;;14.88;9.02;;;;;;;19.84;67.05;95335.13;4991679;28;20057;-77
2022/08/15 02:32:15;;;;;;;12.05;8.13;;;;;;;19.86;66.69;95334.72;4991534;28;20402;-77
2022/08/15 02:34:43;;;;;;;14.85;8.98;;;;;;;19.84;66.13;95335.13;4992349;28;20046;-79
2022/08/15 02:37:18;;;;;;;13.13;8.35;;;;;;;19.86;65.94;95335.50;4991895;28;20051;-77
2022/08/15 02:39:45;;;;;;;14.05;8.40;;;;;;;19.79;65.90;95339.09;4991997;28;20051;-78
2022/08/15 02:42:12;;;;;;;15.88;8.93;;;;;;;19.87;65.85;95339.03;4991567;28;20042;-77
2022/08/15 02:44:40;;;;;;;13.48;8.45;;;;;;;19.93;66.33;95343.72;4991888;28;20050;-78
2022/08/15 02:47:09;;;;;;;14.50;8.63;;;;;;;19.95;66.01;95340.59;4991705;28;20054;-77
2022/08/15 02:49:36;;;;;;;17.83;8.77;;;;;;;19.92;65.83;95349.66;4990544;28;20449;-78
2022/08/15 02:52:04;;;;;;;14.02;7.55;;;;;;;19.93;66.08;95340.19;5004649;28;20046;-78
2022/08/15 02:54:30;;;;;;;13.85;8.50;;;;;;;19.89;65.93;95337.47;5011157;28;20038;-77
2022/08/15 02:56:57;;;;;;;13.45;7.78;;;;;;;19.91;65.72;95335.06;5010795;28;20061;-78
2022/08/15 02:59:27;;;;;;;12.85;7.68;;;;;;;19.93;65.93;95343.72;5010478;28;20046;-78
2022/08/15 03:01:57;;;;;;;11.30;7.65;;;;;;;19.90;65.72;95344.56;5011015;28;20136;-78
2022/08/15 03:04:25;;;;;;;15.15;7.72;;;;;;;19.92;65.80;95339.41;5010556;28;20041;-78
2022/08/15 03:06:53;;;;;;;12.15;7.30;;;;;;;19.96;66.11;95345.69;5011173;28;20057;-78
2022/08/15 03:09:21;;;;;;;12.23;7.18;;;;;;;19.92;65.57;95342.16;5010361;28;20386;-78
2022/08/15 03:11:48;;;;;;;11.88;7.03;;;;;;;19.95;65.78;95341.38;5010722;28;20038;-78
2022/08/15 03:14:17;;;;;;;14.02;7.70;;;;;;;19.93;65.31;95340.97;5010082;28;20494;-78
2022/08/15 03:16:46;;;;;;;12.10;6.95;;;;;;;19.95;65.53;95352.44;5010573;28;20050;-78
2022/08/15 03:19:16;;;;;;;16.20;7.10;;;;;;;19.98;64.89;95345.28;5010698;28;20528;-78
2022/08/15 03:21:44;;;;;;;12.43;7.20;;;;;;;19.96;64.59;95348.47;5010679;28;20073;-78
2022/08/15 03:24:12;;;;;;;11.52;7.35;;;;;;;19.99;64.39;95347.66;5009897;28;20061;-78
2022/08/15 03:26:39;;;;;;;13.20;7.65;;;;;;;19.87;64.34;95339.03;5010199;28;20046;-79
2022/08/15 03:29:07;;;;;;;12.85;7.50;;;;;;;19.86;64.56;95346.53;5009979;28;20057;-78
2022/08/15 03:31:34;;;;;;;14.82;7.63;;;;;;;19.74;64.79;95342.28;5010451;28;20042;-78
2022/08/15 03:34:01;;;;;;;12.27;7.68;;;;;;;19.51;65.84;95348.22;5010559;28;20100;-78
2022/08/15 03:36:27;;;;;;;13.68;8.07;;;;;;;19.41;65.98;95351.81;5010273;28;20405;-78
2022/08/15 03:38:55;;;;;;;18.52;9.02;;;;;;;19.43;66.33;95349.47;5010195;28;20042;-78
2022/08/15 03:41:22;;;;;;;18.42;9.60;;;;;;;19.40;66.38;95360.50;5011624;28;20065;-78
2022/08/15 03:43:48;;;;;;;11.75;7.22;;;;;;;19.56;66.30;95355.31;5014032;28;20050;-78
2022/08/15 03:46:20;;;;;;;14.50;7.90;;;;;;;19.63;65.81;95358.09;5013491;28;20444;-79
2022/08/15 03:48:49;;;;;;;13.40;7.47;;;;;;;19.60;65.75;95360.88;5014005;28;20045;-77
2022/08/15 03:51:18;;;;;;;12.48;6.95;;;;;;;19.60;64.98;95358.88;5013162;28;20038;-77
2022/08/15 03:53:46;;;;;;;14.55;7.78;;;;;;;19.59;63.64;95364.78;5013735;28;20061;-78
2022/08/15 03:56:16;;;;;;;12.40;7.65;;;;;;;19.60;64.54;95361.66;5013326;28;20065;-78
2022/08/15 03:58:43;;;;;;;12.20;6.68;;;;;;;19.64;64.62;95359.66;5013736;28;20133;-78
2022/08/15 04:01:12;;;;;;;13.85;7.55;;;;;;;19.68;65.00;95365.16;5013160;28;20057;-78
2022/08/15 04:03:39;;;;;;;10.43;5.95;;;;;;;19.69;64.85;95369.53;5013778;28;20057;-78
2022/08/15 04:06:10;;;;;;;12.50;6.40;;;;;;;19.71;62.88;95370.69;5013106;28;20441;-78
2022/08/15 04:08:37;;;;;;;14.65;5.57;;;;;;;19.60;61.71;95374.69;5013410;28;20049;-79
2022/08/15 04:11:06;;;;;;;11.23;5.68;;;;;;;19.59;61.04;95378.59;5012978;28;20485;-78
2022/08/15 04:13:35;;;;;;;11.88;5.68;;;;;;;19.58;61.02;95366.78;5012780;28;20493;-77
2022/08/15 04:16:03;;;;;;;12.43;5.30;;;;;;;19.63;60.90;95376.63;5006442;28;20042;-75
2022/08/15 04:18:30;;;;;;;8.98;5.25;;;;;;;19.66;60.62;95381.34;4993921;28;20043;-77
2022/08/15 04:20:59;;;;;;;10.35;5.00;;;;;;;19.72;60.27;95379.75;4998019;28;20042;-79
2022/08/15 04:23:27;;;;;;;8.77;4.75;;;;;;;19.85;60.41;95380.88;5011113;28;20046;-78
2022/08/15 04:25:53;;;;;;;12.00;5.40;;;;;;;19.91;60.34;95379.28;4998611;28;20050;-77
2022/08/15 04:28:23;;;;;;;8.13;4.40;;;;;;;20.00;59.72;95387.13;4993090;28;20463;-77
2022/08/15 04:30:51;;;;;;;9.05;5.15;;;;;;;19.80;60.19;95395.13;4993675;28;20050;-77
2022/08/15 04:33:20;;;;;;;11.50;4.95;;;;;;;19.79;59.53;95393.56;4993024;28;20047;-78
2022/08/15 04:35:49;;;;;;;8.40;4.53;;;;;;;19.95;59.44;95390.31;4993458;28;20050;-79
2022/08/15 04:38:16;;;;;;;10.00;4.72;;;;;;;20.00;59.04;95400.97;5008642;28;20054;-78
2022/08/15 04:40:44;;;;;;;14.07;5.13;;;;;;;20.05;59.02;95401.31;5012972;28;20609;-77
2022/08/15 04:43:11;;;;;;;13.68;4.75;;;;;;;19.99;59.16;95397.41;5009590;28;20072;-78
2022/08/15 04:45:39;;;;;;;11.75;4.25;;;;;;;20.04;58.94;95405.25;4993360;28;20066;-78
2022/08/15 04:48:07;;;;;;;11.88;4.75;;;;;;;20.04;59.16;95399.72;4992725;28;20046;-78
2022/08/15 04:50:36;;;;;;;11.60;4.32;;;;;;;20.09;58.60;95398.53;4999320;28;20393;-78
2022/08/15 04:53:04;;;;;;;11.27;4.35;;;;;;;20.03;59.12;95403.69;5011971;28;20509;-77
2022/08/15 04:55:31;;;;;;;13.10;4.53;;;;;;;20.14;58.65;95402.84;5012650;28;20076;-78
2022/08/15 04:57:59;;;;;;;11.15;4.30;;;;;;;20.18;58.42;95412.69;5012471;28;20059;-78
2022/08/15 05:00:29;;;;;;;10.45;4.47;;;;;;;20.23;58.71;95411.50;5011922;28;20049;-79
2022/08/15 05:03:03;;;;;;;9.82;4.32;;;;;;;20.17;58.42;95407.56;4997497;28;20050;-77
2022/08/15 05:05:33;;;;;;;11.43;4.07;;;;;;;19.95;59.09;95410.44;4997022;28;20045;-78
2022/08/15 05:08:00;;;;;;;11.50;4.40;;;;;;;20.06;59.57;95402.91;5012123;28;20053;-78
2022/08/15 05:10:27;;;;;;;11.57;4.45;;;;;;;20.16;59.03;95406.78;5012162;28;20042;-78
2022/08/15 05:12:54;;;;;;;11.93;4.63;;;;;;;20.26;59.00;95413.47;5012560;28;20061;-78
2022/08/15 05:15:22;;;;;;;11.38;4.10;;;;;;;20.37;59.23;95411.41;5012139;28;20073;-78
2022/08/15 05:17:50;;;;;;;7.10;4.00;;;;;;;20.28;59.14;95408.31;5012769;28;20108;-80
2022/08/15 05:20:18;;;;;;;8.77;3.50;;;;;;;20.34;58.86;95409.44;5012168;28;20045;-77
2022/08/15 05:23:01;;;;;;;10.43;4.22;;;;;;;20.26;58.80;95411.47;5011981;28;20054;-78
2022/08/15 05:25:28;;;;;;;9.70;3.60;;;;;;;20.24;58.94;95408.31;5011933;28;20042;-78
2022/08/15 05:27:56;;;;;;;7.82;3.95;;;;;;;20.34;59.73;95412.22;5011967;28;20053;-78
2022/08/15 05:30:23;;;;;;;9.18;3.97;;;;;;;20.43;58.79;95414.53;5011660;28;20054;-79
2022/08/15 05:33:01;;;;;;;10.18;4.10;;;;;;;20.39;58.57;95420.09;5012039;28;20050;-77
2022/08/15 05:35:28;;;;;;;10.55;3.55;;;;;;;20.42;59.04;95413.75;5011370;28;20048;-80
2022/08/15 05:37:54;;;;;;;8.60;4.03;;;;;;;20.37;58.83;95416.94;5011861;28;20049;-78
2022/08/15 05:40:22;;;;;;;13.02;4.10;;;;;;;20.30;59.14;95419.72;5011300;28;20049;-80
2022/08/15 05:42:55;;;;;;;8.55;3.40;;;;;;;20.32;59.28;95415.38;5011847;28;20674;-79
2022/08/15 05:45:27;;;;;;;7.88;3.25;;;;;;;20.30;59.17;95415.00;5011323;28;20404;-80
2022/08/15 05:48:03;;;;;;;10.20;3.70;;;;;;;20.37;59.42;95422.47;5011592;28;20046;-79
2022/08/15 05:50:32;;;;;;;9.00;3.90;;;;;;;20.46;58.79;95419.25;5010703;28;20437;-81
2022/08/15 05:53:08;;;;;;;9.82;3.83;;;;;;;20.46;58.60;95420.06;4992098;28;20069;-79
2022/08/15 05:55:41;;;;;;;9.43;3.97;;;;;;;20.41;58.71;95426.00;4991721;28;20529;-79
2022/08/15 05:58:26;;;;;;;11.50;4.18;;;;;;;20.49;59.34;95424.78;4991270;28;20061;-81
2022/08/15 06:01:01;;;;;;;10.70;3.55;;;;;;;20.46;58.54;95430.31;4991774;28;20078;-80
2022/08/15 06:03:29;;;;;;;10.85;3.60;;;;;;;20.43;58.99;95431.13;4990610;28;20049;-79
2022/08/15 06:05:57;;;;;;;9.63;3.40;;;;;;;20.42;59.31;95422.06;4991527;28;20053;-80
2022/08/15 06:08:27;;;;;;;11.07;3.92;;;;;;;20.46;59.09;95430.31;4991014;28;20042;-79
2022/08/15 06:11:02;;;;;;;7.50;3.33;;;;;;;20.47;59.78;95438.25;4991744;28;20050;-79
2022/08/15 06:13:33;;;;;;;8.15;3.72;;;;;;;20.45;59.57;95439.78;4991016;28;20042;-80
2022/08/15 06:16:03;;;;;;;8.10;3.28;;;;;;;20.48;60.05;95439.81;4991664;28;20062;-80
2022/08/15 06:18:35;;;;;;;9.30;3.58;;;;;;;20.42;59.83;95437.84;4991399;28;20084;-79
2022/08/15 06:21:08;;;;;;;8.63;3.47;;;;;;;20.50;60.35;95442.16;4996923;28;20409;-79
2022/08/15 06:23:44;;;;;;;9.15;3.63;;;;;;;20.47;59.65;95454.84;5011490;28;20042;-79
2022/08/15 06:26:24;;;;;;;14.43;4.72;;;;;;;20.50;60.41;95442.16;5010117;28;20057;-79
2022/08/15 06:29:09;;;;;;;7.32;3.30;;;;;;;20.52;60.07;95446.13;5010680;28;20084;-80
2022/08/15 06:31:39;;;;;;;8.68;3.58;;;;;;;20.64;60.38;95455.91;5010856;28;20497;-80
2022/08/15 06:34:15;;;;;;;9.70;3.92;;;;;;;20.45;60.23;95451.66;5010610;28;20057;-80
2022/08/15 06:36:47;;;;;;;11.45;4.00;;;;;;;20.47;60.94;95449.31;5010959;28;20046;-80
2022/08/15 06:39:24;;;;;;;12.23;4.45;;;;;;;20.49;60.64;95452.44;5008786;28;20081;-80
2022/08/15 06:41:58;;;;;;;7.20;3.63;;;;;;;20.57;60.64;95459.53;4999100;28;20065;-78
2022/08/15 06:44:27;;;;;;;10.50;4.05;;;;;;;20.72;60.16;95460.19;5002354;28;20054;-77
2022/08/15 06:46:55;;;;;;;11.98;4.18;;;;;;;20.70;60.57;95461.81;5006150;28;20127;-76
2022/08/15 06:49:23;;;;;;;11.63;3.88;;;;;;;20.80;60.33;95458.97;5006844;28;20476;-80
2022/08/15 06:51:50;;;;;;;12.15;4.05;;;;;;;20.82;60.74;95469.63;5006621;28;20422;-80
2022/08/15 06:54:22;;;;;;;9.82;3.88;;;;;;;20.74;59.65;95459.81;5007073;28;20053;-80
2022/08/15 06:56:57;;;;;;;12.90;4.30;;;;;;;20.78;59.78;95471.66;5006702;28;20045;-78
2022/08/15 06:59:33;;;;;;;10.77;3.60;;;;;;;20.89;58.77;95460.50;5006750;28;20042;-79
2022/08/15 07:02:14;;;;;;;13.80;4.25;;;;;;;20.90;58.54;95473.91;5007446;28;20045;-79
2022/08/15 07:04:52;;;;;;;14.68;4.50;;;;;;;20.97;58.38;95471.09;5007033;28;20053;-79
2022/08/15 07:07:30;;;;;;;14.75;4.40;;;;;;;20.97;58.85;95473.88;5008316;28;20054;-80
2022/08/15 07:10:02;;;;;;;8.27;3.25;;;;;;;21.04;59.13;95471.06;5010878;28;20504;-79
2022/08/15 07:12:36;;;;;;;9.65;3.63;;;;;;;21.08;58.64;95471.00;5016867;28;20141;-81
2022/08/15 07:15:09;;;;;;;10.73;3.47;;;;;;;20.93;59.41;95470.31;5020293;28;20050;-79
2022/08/15 07:17:40;;;;;;;10.60;3.88;;;;;;;20.93;59.48;95473.09;5020160;28;20592;-78
2022/08/15 07:20:08;;;;;;;10.75;3.47;;;;;;;20.90;60.00;95476.69;5020002;28;20056;-79
2022/08/15 07:22:35;;;;;;;11.98;3.42;;;;;;;20.98;60.75;95478.19;5016271;28;20050;-77
2022/08/15 07:25:09;;;;;;;11.60;3.75;;;;;;;20.97;61.29;95479.41;5000543;28;20689;-78
2022/08/15 07:27:37;;;;;;;10.35;3.60;;;;;;;20.73;60.73;95485.91;5000138;28;20047;-81
2022/08/15 07:30:15;;;;;;;7.22;2.60;;;;;;;20.75;61.49;95480.75;5003200;28;20126;-82
2022/08/15 07:32:50;;;;;;;8.88;3.22;;;;;;;20.80;60.23;95480.31;5005411;28;20054;-81
2022/08/15 07:35:24;;;;;;;8.35;3.28;;;;;;;20.73;60.72;95485.91;5001913;28;20046;-82
2022/08/15 07:37:56;;;;;;;10.52;3.13;;;;;;;20.48;61.17;95488.81;5000689;28;20058;-80
2022/08/15 07:40:26;;;;;;;10.35;3.67;;;;;;;20.47;60.19;95482.50;4999738;28;20133;-82
2022/08/15 07:42:55;;;;;;;7.82;3.10;;;;;;;20.38;61.20;95476.56;4998145;28;20108;-82
2022/08/15 07:45:28;;;;;;;15.70;4.15;;;;;;;20.45;61.64;95484.81;5000600;28;20062;-81
2022/08/15 07:47:59;;;;;;;7.53;2.78;;;;;;;20.51;61.58;95479.69;5004249;28;20109;-82
2022/08/15 07:50:35;;;;;;;9.45;3.45;;;;;;;20.59;60.91;95484.00;5000031;28;20050;-83
2022/08/15 07:53:10;;;;;;;13.63;3.70;;;;;;;20.59;61.34;95481.25;4996740;28;20050;-78
2022/08/15 07:55:38;;;;;;;13.32;3.80;;;;;;;20.65;62.06;95487.91;4997183;28;20080;-81
2022/08/15 07:58:15;;;;;;;8.98;3.25;;;;;;;20.81;60.49;95484.66;4998891;28;20077;-82
2022/08/15 08:00:42;;;;;;;10.68;3.55;;;;;;;21.45;60.90;95488.94;4998255;28;20058;-81
2022/08/15 08:03:15;;;;;;;8.75;3.35;;;;;;;21.96;59.74;95485.25;4997009;28;20101;-78
2022/08/15 08:05:48;;;;;;;;;;;;;;;22.20;56.60;95486.19;4994809;28;20058;-81
2022/08/15 08:08:15;;;;;;;8.50;3.22;;;;;;;22.02;56.59;95486.38;5001254;28;19922;-81
2022/08/15 08:10:50;;;;;;;9.82;3.22;;;;;;;22.25;56.86;95484.97;5001741;28;20564;-81
2022/08/15 08:13:35;;;;;;;8.25;2.70;;;;;;;22.57;57.14;95490.09;5004782;28;20052;-80
2022/08/15 08:16:08;;;;;;;6.25;2.72;;;;;;;22.54;53.57;95486.16;5004259;28;20077;-82
2022/08/15 08:18:44;;;;;;;7.57;2.70;;;;;;;22.95;53.60;95482.44;5003823;28;20031;-81
2022/08/15 08:21:15;;;;;;;9.00;3.35;;;;;;;23.05;52.43;95492.59;5000340;28;20042;-78
2022/08/15 08:23:44;;;;;;;10.52;3.78;;;;;;;22.70;52.46;95496.63;5002150;28;20512;-79
2022/08/15 08:26:24;;;;;;;8.95;3.22;;;;;;;22.93;53.27;95501.50;5010287;28;20153;-78
2022/08/15 08:29:03;;;;;;;11.90;3.38;;;;;;;23.28;52.04;95500.16;5011377;28;20046;-78
2022/08/15 08:31:36;;;;;;;10.80;3.60;;;;;;;23.30;50.74;95499.75;5010526;28;20042;-79
2022/08/15 08:34:14;;;;;;;10.07;3.10;;;;;;;23.50;51.05;95508.94;5010961;28;20132;-78
2022/08/15 08:36:58;;;;;;;10.45;3.35;;;;;;;23.76;52.09;95510.13;5011623;28;20050;-79
2022/08/15 08:39:37;;;;;;;8.40;3.15;;;;;;;23.81;49.82;95509.63;5012002;28;20092;-79
2022/08/15 08:42:14;;;;;;;9.50;3.35;;;;;;;23.51;50.62;95507.75;5012070;28;20057;-79
2022/08/15 08:44:50;;;;;;;9.48;3.50;;;;;;;22.94;52.03;95503.09;5012162;28;20164;-79
2022/08/15 08:47:28;;;;;;;9.65;3.15;;;;;;;22.94;52.34;95503.09;5010701;28;20497;-78
2022/08/15 08:50:08;;;;;;;9.50;3.17;;;;;;;22.94;52.43;95503.09;5010798;28;20050;-79
2022/08/15 08:52:41;;;;;;;11.05;3.58;;;;;;;22.73;53.62;95503.34;5009910;28;20053;-78
2022/08/15 08:55:16;;;;;;;9.70;2.80;;;;;;;22.54;53.26;95508.34;5010193;28;20073;-80
2022/08/15 08:57:47;;;;;;;11.57;3.40;;;;;;;22.59;53.58;95507.09;5010243;28;20056;-78
2022/08/15 09:00:18;;;;;;;8.73;3.22;;;;;;;22.87;53.23;95509.50;5010751;28;20410;-78
2022/08/15 09:02:48;;;;;;;11.52;3.72;;;;;;;23.29;55.34;95506.53;5012635;28;20073;-79
2022/08/15 09:05:27;;;;;;;10.40;2.95;;;;;;;23.33;51.29;95507.22;5012414;28;20046;-82
2022/08/15 09:07:59;;;;;;;8.73;3.20;;;;;;;23.04;52.14;95501.34;5012209;28;20050;-80
2022/08/15 09:10:34;;;;;;;9.48;2.63;;;;;;;22.69;54.00;95505.38;5011488;28;20092;-80
2022/08/15 09:15:54;;;;;;;10.02;3.22;;;;;;;22.71;53.28;95514.06;5011328;28;20080;-76
2022/08/15 09:18:28;;;;;;;8.07;2.90;;;;;;;22.40;53.13;95500.22;5010870;28;20065;-76
2022/08/15 09:20:56;;;;;;;11.70;3.88;;;;;;;22.45;53.42;95510.88;5011037;28;20488;-77
2022/08/15 09:23:24;;;;;;;10.88;3.22;;;;;;;22.40;53.03;95501.00;5009324;28;20121;-77
2022/08/15 09:25:57;;;;;;;10.45;3.45;;;;;;;22.30;52.48;95503.91;5009995;28;20069;-79
2022/08/15 09:28:30;;;;;;;9.88;3.35;;;;;;;22.37;53.49;95509.38;5010499;28;20057;-79
2022/08/15 09:31:01;;;;;;;10.88;3.35;;;;;;;22.39;53.62;95501.41;5011042;28;20060;-78
2022/08/15 09:33:57;;;;;;;12.32;4.00;;;;;;;22.34;53.50;95504.63;5010272;28;20508;-79
2022/08/15 09:36:52;;;;;;;11.27;3.83;;;;;;;22.36;54.79;95508.59;5009339;28;20046;-77
2022/08/15 09:39:40;;;;;;;8.60;3.35;;;;;;;22.48;54.04;95501.69;5003523;28;20058;-78
2022/08/15 09:42:24;;;;;;;8.50;3.30;;;;;;;22.35;54.64;95495.13;5011604;28;20560;-79
2022/08/15 09:45:09;;;;;;;10.45;3.67;;;;;;;22.59;54.15;95499.56;5009602;28;20057;-78
2022/08/15 09:47:57;;;;;;;11.57;3.85;;;;;;;22.58;53.42;95502.75;5009672;28;20062;-78
2022/08/15 09:50:59;;;;;;;12.50;4.25;;;;;;;22.51;55.22;95500.88;5008822;28;20085;-78
2022/08/15 09:53:41;;;;;;;8.93;3.22;;;;;;;22.36;53.85;95497.50;4988970;28;20050;-79
2022/08/15 09:56:12;;;;;;;9.90;3.70;;;;;;;22.40;54.95;95500.22;4988510;28;20054;-81
2022/08/15 09:58:55;;;;;;;12.10;4.18;;;;;;;22.43;55.35;95495.81;4989034;28;20057;-81
2022/08/15 10:01:28;;;;;;;9.82;3.60;;;;;;;22.44;53.79;95492.63;4988526;28;20828;-79
2022/08/15 10:04:01;;;;;;;9.40;3.45;;;;;;;22.44;53.97;95491.84;4989128;28;20061;-79
2022/08/15 10:06:30;;;;;;;;;;;;;;;22.10;54.64;95496.22;4988806;28;20053;-79
2022/08/15 10:09:12;;;;;;;10.98;3.25;;;;;;;22.21;55.28;95498.84;4990110;28;20015;-79
2022/08/15 10:12:29;;;;;;;9.27;3.50;;;;;;;22.35;55.26;95500.69;4990200;28;20050;-79
2022/08/15 10:15:02;;;;;;;11.75;3.58;;;;;;;22.27;53.72;95493.63;4990415;28;20466;-80
2022/08/15 10:17:42;;;;;;;9.57;3.42;;;;;;;22.33;54.63;95497.53;4989545;28;20077;-80
2022/08/15 10:21:01;;;;;;;13.02;4.00;;;;;;;22.33;53.38;95497.53;4988352;28;20086;-79
2022/08/15 10:23:41;;;;;;;10.48;3.30;;;;;;;22.33;52.77;95491.97;4988442;28;20039;-79
2022/08/15 10:26:21;;;;;;;13.65;3.97;;;;;;;22.23;52.99;95498.44;4987801;28;20512;-79
2022/08/15 10:29:00;;;;;;;11.27;3.95;;;;;;;22.25;53.04;95491.28;4988648;28;20047;-79
2022/08/15 10:31:31;;;;;;;8.63;3.28;;;;;;;22.43;53.45;95491.06;4978512;28;20057;-80
2022/08/15 10:34:02;;;;;;;8.57;3.38;;;;;;;22.52;53.22;95485.78;4988517;28;20616;-78
2022/08/15 10:36:34;;;;;;;10.20;3.72;;;;;;;22.58;52.93;95491.66;4988700;28;20053;-78
2022/08/15 10:39:23;;;;;;;8.02;3.40;;;;;;;22.63;52.25;95494.75;4988082;28;20054;-78
2022/08/15 10:42:09;;;;;;;11.75;3.97;;;;;;;22.62;52.71;95487.63;4988285;28;20042;-78
2022/08/15 10:44:50;;;;;;;12.77;4.07;;;;;;;22.74;53.20;95486.28;4988056;28;20656;-78
2022/08/15 10:47:32;;;;;;;10.40;3.67;;;;;;;22.70;51.80;95487.53;5006337;28;20054;-78
2022/08/15 10:50:14;;;;;;;6.63;2.70;;;;;;;22.91;51.39;95484.47;5007621;28;20053;-78
2022/08/15 10:52:55;;;;;;;11.38;3.47;;;;;;;23.15;51.66;95479.75;5007576;28;20188;-80
2022/08/15 10:55:29;;;;;;;9.95;3.60;;;;;;;23.24;49.20;95484.78;5005516;28;20049;-80
2022/08/15 10:58:00;;;;;;;9.57;3.20;;;;;;;23.10;48.63;95485.78;5007855;28;20057;-80
2022/08/15 11:00:37;;;;;;;7.55;2.85;;;;;;;23.12;47.57;95475.81;5007413;28;20108;-81
2022/08/15 11:03:06;;;;;;;9.02;3.30;;;;;;;23.34;49.32;95487.38;5008599;28;20061;-78
2022/08/15 11:05:33;;;;;;;7.95;3.20;;;;;;;23.36;48.54;95479.41;5009385;28;20382;-81
2022/08/15 11:07:59;;;;;;;8.02;3.22;;;;;;;23.33;47.99;95474.69;5007998;28;20046;-79
2022/08/15 11:10:32;;;;;;;7.93;3.10;;;;;;;23.46;49.35;95483.22;5007970;28;20038;-80
2022/08/15 11:13:06;;;;;;;6.18;2.88;;;;;;;23.67;49.77;95482.88;5008385;28;20045;-78
2022/08/15 11:15:46;;;;;;;9.80;3.95;;;;;;;23.97;47.91;95470.00;5008096;28;20052;-78
2022/08/15 11:18:13;;;;;;;8.38;3.05;;;;;;;24.23;47.51;95478.66;5006883;28;20064;-78
2022/08/15 11:20:50;;;;;;;9.98;3.42;;;;;;;24.25;46.91;95474.22;5007104;28;20045;-75
2022/08/15 11:23:31;;;;;;;9.43;3.33;;;;;;;24.55;46.58;95472.44;5006487;28;20108;-77
2022/08/15 11:26:00;;;;;;;8.20;3.28;;;;;;;24.60;45.24;95467.16;5007146;28;20053;-75
2022/08/15 11:28:28;;;;;;;10.32;3.50;;;;;;;24.79;45.48;95467.53;5006321;28;20065;-76
2022/08/15 11:31:00;;;;;;;7.55;3.28;;;;;;;24.89;44.53;95466.50;5006977;28;20760;-75
2022/08/15 11:33:40;;;;;;;11.88;4.20;;;;;;;25.08;44.60;95464.91;5006597;28;20046;-76
2022/08/15 11:36:09;;;;;;;8.27;3.15;;;;;;;25.36;43.75;95466.22;5006143;28;20116;-76
2022/08/15 11:38:41;;;;;;;7.45;3.40;;;;;;;25.45;45.14;95471.97;5006681;28;20046;-76
2022/08/15 11:41:09;;;;;;;7.38;3.00;;;;;;;25.16;45.02;95455.97;5006385;28;20777;-75
2022/08/15 11:43:40;;;;;;;8.98;3.28;;;;;;;25.24;43.55;95456.56;5006856;28;20156;-78
2022/08/15 11:46:06;;;;;;;7.13;3.20;;;;;;;25.11;46.46;95455.69;5006486;28;20405;-75
2022/08/15 11:48:39;;;;;;;8.43;3.42;;;;;;;25.22;45.76;95451.44;5006990;28;20045;-76
2022/08/15 11:51:08;;;;;;;10.45;3.60;;;;;;;25.33;45.00;95453.16;5005932;28;20042;-76
2022/08/15 11:53:40;;;;;;;8.00;3.40;;;;;;;25.42;45.59;95445.78;5006559;28;20054;-76
2022/08/15 11:56:06;;;;;;;11.73;3.88;;;;;;;25.44;43.66;95436.97;5006297;28;20061;-76